Time;durP1;ratioP1;P1;durP2;ratioP2;P2;SDS_P1;SDS_P2;PMS_P1;PMS_P2;Temp;Humidity;BMP_temperature;BMP_pressure;BME280_temperature;BME280_humidity;BME280_pressure;Samples;Min_cycle;Max_cycle;Signal;HPM_P1;HPM_P2
2023/10/23 00:01:46;;;;;;;21.93;14.10;;;;;;;2.67;100.00;100823.81;4898304;29;20033;-68
2023/10/23 00:04:11;;;;;;;23.03;13.80;;;;;;;2.63;100.00;100817.94;4898972;29;20037;-69
2023/10/23 00:06:37;;;;;;;22.67;14.43;;;;;;;2.68;100.00;100815.81;4898296;29;20277;-70
2023/10/23 00:09:03;;;;;;;26.77;17.40;;;;;;;2.70;100.00;100819.16;4896368;29;20040;-68
2023/10/23 00:11:30;;;;;;;28.20;18.87;;;;;;;2.47;100.00;100781.38;4898120;29;20149;-68
2023/10/23 00:13:56;;;;;;;27.47;18.60;;;;;;;2.75;100.00;100801.25;4897315;29;20036;-68
2023/10/23 00:16:22;;;;;;;37.37;22.77;;;;;;;2.76;100.00;100802.94;4896696;29;20280;-67
2023/10/23 00:18:48;;;;;;;32.47;19.00;;;;;;;2.78;100.00;100798.41;4896072;29;20044;-67
2023/10/23 00:21:15;;;;;;;35.50;24.43;;;;;;;2.73;100.00;100792.63;4895355;29;20333;-67
2023/10/23 00:23:40;;;;;;;31.97;23.33;;;;;;;2.58;100.00;100777.13;4896510;29;20737;-68
2023/10/23 00:26:06;;;;;;;35.30;22.60;;;;;;;2.56;100.00;100784.28;4895851;29;20295;-69
2023/10/23 00:28:33;;;;;;;33.73;21.07;;;;;;;2.30;100.00;100744.94;4895053;29;20116;-68
2023/10/23 00:30:59;;;;;;;22.73;15.03;;;;;;;2.44;100.00;100784.22;4896397;29;20037;-67
2023/10/23 00:33:25;;;;;;;20.87;12.60;;;;;;;2.23;100.00;100746.34;4896558;29;20307;-68
2023/10/23 00:35:51;;;;;;;18.50;12.23;;;;;;;2.48;100.00;100790.94;4897013;29;20048;-69
2023/10/23 00:38:16;;;;;;;16.07;11.00;;;;;;;2.32;100.00;100758.00;4896866;29;20579;-68
2023/10/23 00:40:42;;;;;;;18.67;11.67;;;;;;;2.35;100.00;100761.25;4896888;29;20202;-67
2023/10/23 00:43:18;;;;;;;18.67;10.73;;;;;;;2.43;100.00;100768.56;4896742;29;20052;-67
2023/10/23 00:45:51;;;;;;;17.03;10.90;;;;;;;1.99;100.00;100717.38;4896423;29;20040;-68
2023/10/23 00:48:20;;;;;;;18.57;10.90;;;;;;;2.30;100.00;100768.59;4896297;29;20404;-68
2023/10/23 00:50:47;;;;;;;17.73;11.13;;;;;;;2.35;100.00;100771.75;4896148;29;20273;-69
2023/10/23 00:53:13;;;;;;;16.07;10.47;;;;;;;2.22;100.00;100728.88;4897106;29;20285;-67
2023/10/23 00:55:39;;;;;;;19.87;10.77;;;;;;;2.50;100.00;100764.53;4896782;29;20299;-68
2023/10/23 00:58:05;;;;;;;18.00;11.10;;;;;;;2.45;100.00;100748.25;4896264;29;20088;-68
2023/10/23 01:00:33;;;;;;;17.10;10.03;;;;;;;2.25;100.00;100720.78;4896557;29;20277;-68
2023/10/23 01:02:59;;;;;;;17.57;10.80;;;;;;;2.62;100.00;100761.03;4898817;29;20048;-67
2023/10/23 01:05:25;;;;;;;15.97;10.33;;;;;;;2.55;100.00;100746.63;4896704;29;20275;-68
2023/10/23 01:07:50;;;;;;;17.03;11.00;;;;;;;2.71;100.00;100768.25;4896514;29;20070;-67
2023/10/23 01:10:16;;;;;;;14.00;9.73;;;;;;;2.64;100.00;100753.88;4896417;29;20104;-67
2023/10/23 01:12:41;;;;;;;17.20;11.43;;;;;;;2.52;100.00;100738.97;4896474;29;20037;-67
2023/10/23 01:15:07;;;;;;;16.33;10.43;;;;;;;2.60;100.00;100759.44;4896311;29;20493;-67
2023/10/23 01:17:33;;;;;;;18.53;10.30;;;;;;;2.55;100.00;100757.16;4896129;29;20048;-68
2023/10/23 01:19:58;;;;;;;16.70;10.23;;;;;;;2.37;100.00;100737.47;4895175;29;20465;-67
2023/10/23 01:22:24;;;;;;;17.17;10.13;;;;;;;2.48;100.00;100755.94;4895145;29;20036;-66
2023/10/23 01:24:51;;;;;;;14.50;9.57;;;;;;;2.41;100.00;100749.44;4896335;29;20059;-67
2023/10/23 01:27:17;;;;;;;19.87;11.23;;;;;;;2.41;100.00;100755.53;4896176;29;20124;-67
2023/10/23 01:29:43;;;;;;;17.87;10.37;;;;;;;2.33;100.00;100741.28;4896353;29;20859;-67
2023/10/23 01:32:10;;;;;;;16.80;10.47;;;;;;;2.35;100.00;100749.88;4897119;29;20609;-68
2023/10/23 01:34:35;;;;;;;16.80;11.17;;;;;;;2.39;100.00;100752.19;4898182;29;20092;-68
2023/10/23 01:37:01;;;;;;;14.60;10.33;;;;;;;2.40;100.00;100745.97;4897994;29;20348;-67
2023/10/23 01:39:26;;;;;;;15.53;10.90;;;;;;;2.29;100.00;100718.78;4897633;29;20048;-67
2023/10/23 01:41:52;;;;;;;19.10;11.93;;;;;;;2.34;100.00;100727.19;4897983;29;20413;-67
2023/10/23 01:44:17;;;;;;;17.03;10.83;;;;;;;2.38;100.00;100733.91;4899636;29;20049;-68
2023/10/23 01:46:43;;;;;;;14.50;10.43;;;;;;;2.53;100.00;100748.53;4898360;29;20032;-66
2023/10/23 01:49:09;;;;;;;15.40;10.63;;;;;;;2.42;100.00;100723.03;4899165;29;20135;-68
2023/10/23 01:51:35;;;;;;;15.73;11.27;;;;;;;2.54;100.00;100752.84;4898072;29;20105;-67
2023/10/23 01:54:02;;;;;;;20.77;11.83;;;;;;;2.36;100.00;100733.16;4899207;29;20078;-67
2023/10/23 01:56:28;;;;;;;20.10;12.83;;;;;;;2.53;100.00;100753.78;4897877;29;20335;-69
2023/10/23 01:58:53;;;;;;;16.67;10.63;;;;;;;2.60;100.00;100755.06;4897870;29;20273;-67
2023/10/23 02:01:21;;;;;;;15.70;10.80;;;;;;;2.67;100.00;100756.28;4898925;29;20076;-67
2023/10/23 02:03:46;;;;;;;15.63;10.77;;;;;;;2.22;100.00;100672.88;4898842;29;20047;-67
2023/10/23 02:06:12;;;;;;;18.80;12.37;;;;;;;2.73;100.00;100744.47;4898874;29;20273;-67
2023/10/23 02:08:37;;;;;;;15.30;10.73;;;;;;;2.74;100.00;100749.63;4898809;29;20413;-67
2023/10/23 02:11:03;;;;;;;16.77;11.63;;;;;;;2.71;100.00;100738.47;4897598;29;20043;-68
2023/10/23 02:13:29;;;;;;;19.67;12.73;;;;;;;2.70;100.00;100739.44;4898781;29;20486;-68
2023/10/23 02:15:54;;;;;;;17.27;12.40;;;;;;;2.57;100.00;100739.47;4898828;29;20041;-68
2023/10/23 02:18:20;;;;;;;18.87;13.03;;;;;;;2.46;100.00;100721.88;4898734;29;20096;-67
2023/10/23 02:20:46;;;;;;;18.90;13.37;;;;;;;2.61;100.00;100751.47;4898987;29;20128;-69
2023/10/23 02:23:11;;;;;;;18.10;11.73;;;;;;;2.45;100.00;100735.97;4898809;29;20032;-68
2023/10/23 02:25:37;;;;;;;21.63;13.47;;;;;;;2.34;100.00;100727.19;4897112;29;20404;-66
2023/10/23 02:28:03;;;;;;;17.23;12.20;;;;;;;2.34;100.00;100728.03;4898004;29;20412;-68
2023/10/23 02:30:28;;;;;;;18.63;12.30;;;;;;;2.44;100.00;100734.28;4898576;29;20043;-69
2023/10/23 02:32:54;;;;;;;17.87;11.10;;;;;;;2.52;100.00;100731.09;4897040;29;20041;-68
2023/10/23 02:35:20;;;;;;;16.73;11.47;;;;;;;2.70;100.00;100753.41;4898400;29;20128;-67
2023/10/23 02:37:45;;;;;;;15.27;10.33;;;;;;;2.74;100.00;100746.97;4898552;29;20069;-68
2023/10/23 02:40:12;;;;;;;18.30;11.03;;;;;;;2.67;100.00;100727.34;4898452;29;20032;-67
2023/10/23 02:42:37;;;;;;;13.60;9.03;;;;;;;2.76;100.00;100738.97;4898385;29;20051;-67
2023/10/23 02:45:03;;;;;;;15.20;10.40;;;;;;;2.54;100.00;100715.19;4898429;29;20292;-67
2023/10/23 02:47:30;;;;;;;16.03;10.80;;;;;;;2.65;100.00;100742.41;4897902;29;20413;-67
2023/10/23 02:49:55;;;;;;;14.63;10.60;;;;;;;2.59;100.00;100734.09;4898158;29;20301;-67
2023/10/23 02:52:25;;;;;;;14.43;10.50;;;;;;;2.52;100.00;100730.25;4896921;29;20063;-69
2023/10/23 02:54:51;;;;;;;15.00;9.77;;;;;;;2.31;100.00;100706.34;4898095;29;20064;-67
2023/10/23 02:57:16;;;;;;;14.93;10.23;;;;;;;2.31;100.00;100712.44;4898025;29;20360;-68
2023/10/23 02:59:46;;;;;;;17.77;10.30;;;;;;;2.48;100.00;100732.28;4897810;29;20488;-68
2023/10/23 03:02:14;;;;;;;16.23;11.30;;;;;;;2.47;100.00;100725.34;4898220;29;20118;-66
2023/10/23 03:04:39;;;;;;;14.57;9.97;;;;;;;2.52;100.00;100719.72;4899424;29;20288;-69
2023/10/23 03:07:05;;;;;;;15.80;10.73;;;;;;;2.49;100.00;100721.63;4900984;29;20661;-69
2023/10/23 03:09:30;;;;;;;15.53;10.17;;;;;;;2.36;100.00;100699.84;4898193;29;20124;-67
2023/10/23 03:11:56;;;;;;;14.87;9.70;;;;;;;2.38;100.00;100686.59;4898821;29;20409;-68
2023/10/23 03:14:21;;;;;;;12.43;9.50;;;;;;;2.38;100.00;100692.69;4897765;29;20048;-69
2023/10/23 03:16:47;;;;;;;14.23;9.67;;;;;;;2.30;100.00;100678.41;4897799;29;20040;-68
2023/10/23 03:19:13;;;;;;;12.77;9.13;;;;;;;2.42;100.00;100698.53;4881004;29;20511;-67
2023/10/23 03:21:38;;;;;;;15.77;9.50;;;;;;;2.40;100.00;100700.44;4898347;29;20036;-67
2023/10/23 03:24:05;;;;;;;13.23;9.83;;;;;;;2.43;100.00;100697.59;4897770;29;20036;-68
2023/10/23 03:26:30;;;;;;;11.50;7.83;;;;;;;2.45;100.00;100709.69;4897884;29;20400;-68
2023/10/23 03:28:56;;;;;;;11.20;8.20;;;;;;;2.41;100.00;100692.44;4898342;29;20319;-68
2023/10/23 03:31:22;;;;;;;14.17;9.10;;;;;;;2.45;100.00;100687.81;4897347;29;20040;-65
2023/10/23 03:33:48;;;;;;;11.80;8.23;;;;;;;2.41;100.00;100681.09;4897458;29;20043;-68
2023/10/23 03:36:13;;;;;;;12.10;8.20;;;;;;;2.44;100.00;100675.63;4901492;29;20040;-67
2023/10/23 03:38:39;;;;;;;10.53;8.00;;;;;;;2.63;100.00;100696.16;4901188;29;20044;-66
2023/10/23 03:41:04;;;;;;;10.87;7.23;;;;;;;2.64;100.00;100688.16;4897622;29;20477;-67
2023/10/23 03:43:30;;;;;;;10.50;7.73;;;;;;;2.55;100.00;100678.28;4897559;29;20088;-69
2023/10/23 03:45:56;;;;;;;8.83;7.33;;;;;;;2.63;100.00;100678.56;4897326;29;20092;-69
2023/10/23 03:48:21;;;;;;;9.37;6.50;;;;;;;2.77;100.00;100695.94;4897484;29;20040;-67
2023/10/23 03:50:47;;;;;;;8.80;6.40;;;;;;;2.41;100.00;100633.78;4897281;29;20046;-69
2023/10/23 03:53:14;;;;;;;11.57;7.57;;;;;;;2.27;100.00;100618.19;4897414;29;20083;-65
2023/10/23 03:55:39;;;;;;;10.27;7.10;;;;;;;2.52;100.00;100667.16;4897926;29;20441;-68
2023/10/23 03:58:05;;;;;;;9.80;7.03;;;;;;;2.65;100.00;100697.72;4897407;29;20269;-67
2023/10/23 04:00:30;;;;;;;8.73;6.53;;;;;;;2.40;100.00;100653.97;4897819;29;20464;-67
2023/10/23 04:02:56;;;;;;;8.07;6.37;;;;;;;2.52;100.00;100662.75;4898801;29;20124;-65
2023/10/23 04:05:22;;;;;;;8.50;6.07;;;;;;;2.40;100.00;100642.63;4904761;29;20021;-68
2023/10/23 04:07:47;;;;;;;7.63;6.17;;;;;;;2.69;100.00;100696.53;4919358;29;20051;-68
2023/10/23 04:10:16;;;;;;;9.93;6.67;;;;;;;2.69;100.00;100696.53;4919229;29;20061;-66
2023/10/23 04:12:41;;;;;;;;;;;;;;;2.71;100.00;100694.63;4917953;29;20045;-65
2023/10/23 04:15:07;;;;;;;8.83;6.57;;;;;;;2.66;100.00;100690.66;4903915;29;19923;-67
2023/10/23 04:17:33;;;;;;;8.93;6.77;;;;;;;2.43;100.00;100653.75;4897990;29;20501;-67
2023/10/23 04:19:58;;;;;;;9.77;8.07;;;;;;;2.62;100.00;100695.31;4897691;29;20497;-67
2023/10/23 04:22:29;;;;;;;9.63;6.50;;;;;;;2.64;100.00;100687.31;4897497;29;20047;-67
2023/10/23 04:24:55;;;;;;;9.47;6.27;;;;;;;2.21;100.00;100623.91;4897460;29;20041;-68
2023/10/23 04:27:20;;;;;;;9.50;6.90;;;;;;;2.24;100.00;100626.31;4895675;29;20717;-66
2023/10/23 04:29:46;;;;;;;10.83;7.23;;;;;;;2.70;100.00;100689.47;4897084;29;20091;-66
2023/10/23 04:32:12;;;;;;;10.83;7.47;;;;;;;2.72;100.00;100685.78;4897044;29;20150;-66
2023/10/23 04:34:37;;;;;;;13.97;8.07;;;;;;;2.63;100.00;100672.47;4896837;29;20037;-67
2023/10/23 04:37:03;;;;;;;8.47;6.50;;;;;;;2.52;100.00;100657.47;4896917;29;20049;-66
2023/10/23 04:39:28;;;;;;;11.40;7.63;;;;;;;2.42;100.00;100643.34;4897606;29;20219;-66
2023/10/23 04:41:54;;;;;;;9.67;7.70;;;;;;;2.63;100.00;100678.56;4897479;29;20413;-66
2023/10/23 04:44:19;;;;;;;10.53;7.47;;;;;;;2.62;100.00;100676.91;4897519;29;20040;-66
2023/10/23 04:46:46;;;;;;;9.60;7.90;;;;;;;2.71;100.00;100678.84;4901417;29;20052;-66
2023/10/23 04:49:11;;;;;;;10.13;8.17;;;;;;;2.57;100.00;100650.09;4905596;29;20083;-67
2023/10/23 04:51:38;;;;;;;11.00;8.00;;;;;;;2.53;100.00;100643.38;4896218;29;20777;-69
2023/10/23 04:54:03;;;;;;;10.97;8.57;;;;;;;2.52;100.00;100631.19;4897689;29;20076;-71
2023/10/23 04:56:32;;;;;;;13.10;7.53;;;;;;;2.79;100.00;100673.84;4896919;29;20336;-71
2023/10/23 04:58:57;;;;;;;13.00;8.50;;;;;;;2.80;100.00;100667.63;4897717;29;20041;-69
2023/10/23 05:01:24;;;;;;;14.63;9.17;;;;;;;2.52;100.00;100641.72;4897448;29;20039;-75
2023/10/23 05:03:49;;;;;;;12.60;8.93;;;;;;;2.61;100.00;100667.34;4911857;29;20084;-69
2023/10/23 05:06:15;;;;;;;11.30;8.17;;;;;;;2.57;100.00;100644.81;4897548;29;20272;-66
2023/10/23 05:08:40;;;;;;;10.37;7.73;;;;;;;2.89;100.00;100676.63;4911384;29;20349;-68
2023/10/23 05:11:07;;;;;;;11.67;8.87;;;;;;;2.50;100.00;100612.06;4896496;29;20485;-68
2023/10/23 05:13:33;;;;;;;12.50;8.93;;;;;;;2.91;100.00;100673.88;4896898;29;20055;-67
2023/10/23 05:16:05;;;;;;;13.73;9.10;;;;;;;2.80;100.00;100662.38;4896920;29;20618;-65
2023/10/23 05:18:32;;;;;;;12.40;8.07;;;;;;;2.90;100.00;100672.22;4905965;29;20276;-67
2023/10/23 05:20:58;;;;;;;15.83;9.77;;;;;;;2.98;100.00;100672.47;4901944;29;20316;-64
2023/10/23 05:23:24;;;;;;;11.07;8.33;;;;;;;2.91;100.00;100663.38;4910260;29;20272;-65
2023/10/23 05:25:49;;;;;;;11.43;8.73;;;;;;;2.99;100.00;100663.63;4909539;29;20067;-66
2023/10/23 05:28:15;;;;;;;12.00;9.40;;;;;;;3.04;100.00;100659.66;4911264;29;20452;-68
2023/10/23 05:30:40;;;;;;;13.60;9.30;;;;;;;2.92;100.00;100644.00;4910772;29;20067;-68
2023/10/23 05:33:15;;;;;;;15.50;8.87;;;;;;;3.13;100.00;100667.81;4909177;29;20040;-70
2023/10/23 05:35:41;;;;;;;12.57;9.47;;;;;;;3.08;100.00;100666.38;4907386;29;20131;-68
2023/10/23 05:38:06;;;;;;;14.30;8.63;;;;;;;3.08;100.00;100665.53;4898832;29;20841;-68
2023/10/23 05:40:32;;;;;;;13.20;8.17;;;;;;;3.20;100.00;100690.94;4905450;29;20029;-66
2023/10/23 05:42:57;;;;;;;11.47;7.57;;;;;;;3.16;100.00;100681.56;4918952;29;20040;-64
2023/10/23 05:45:23;;;;;;;10.10;8.00;;;;;;;3.24;100.00;100681.84;4918421;29;20060;-67
2023/10/23 05:47:48;;;;;;;11.47;8.17;;;;;;;3.16;100.00;100667.56;4933164;29;20056;-68
2023/10/23 05:50:14;;;;;;;10.37;8.17;;;;;;;3.22;100.00;100694.28;4917739;29;20043;-66
2023/10/23 05:52:42;;;;;;;10.73;7.93;;;;;;;3.14;100.00;100669.50;4915877;29;20831;-64
2023/10/23 05:55:08;;;;;;;15.10;9.27;;;;;;;3.23;100.00;100688.06;4917272;29;20092;-66
2023/10/23 05:57:34;;;;;;;11.93;7.97;;;;;;;3.16;100.00;100678.94;4917233;29;20325;-65
2023/10/23 06:00:00;;;;;;;12.17;9.23;;;;;;;3.06;100.00;100651.66;4917295;29;20880;-65
2023/10/23 06:02:27;;;;;;;10.23;8.47;;;;;;;3.31;100.00;100667.25;4916220;29;20378;-66
2023/10/23 06:04:52;;;;;;;10.67;7.73;;;;;;;3.43;100.00;100682.09;4918192;29;20272;-65
2023/10/23 06:07:18;;;;;;;10.93;8.23;;;;;;;3.23;100.00;100638.06;4917560;29;20272;-63
2023/10/23 06:09:44;;;;;;;11.33;8.33;;;;;;;3.36;100.00;100662.47;4917645;29;20460;-65
2023/10/23 06:12:11;;;;;;;13.03;8.93;;;;;;;3.53;100.00;100671.69;4932638;29;20044;-67
2023/10/23 06:14:37;;;;;;;13.53;9.40;;;;;;;3.57;100.00;100682.81;4932488;29;20036;-63
2023/10/23 06:17:03;;;;;;;13.73;9.90;;;;;;;3.52;100.00;100674.44;4917777;29;20371;-63
2023/10/23 06:19:31;;;;;;;11.37;8.83;;;;;;;3.50;100.00;100665.84;4919918;29;20084;-65
2023/10/23 06:21:57;;;;;;;13.90;10.02;;;;;;;3.65;100.00;100681.25;4917667;29;20040;-65
2023/10/23 06:24:22;;;;;;;13.13;9.30;;;;;;;3.56;100.00;100683.78;4917419;29;20032;-65
2023/10/23 06:26:48;;;;;;;12.90;9.33;;;;;;;2.77;100.00;100565.28;4917923;29;20043;-64
2023/10/23 06:29:14;;;;;;;14.87;11.23;;;;;;;3.41;100.00;100657.66;4916511;29;20139;-65
2023/10/23 06:31:39;;;;;;;10.77;8.67;;;;;;;3.57;100.00;100685.47;4917647;29;20047;-65
2023/10/23 06:34:05;;;;;;;14.60;9.73;;;;;;;3.53;100.00;100678.75;4917079;29;20613;-65
2023/10/23 06:36:31;;;;;;;9.70;7.77;;;;;;;3.59;100.00;100691.44;4916645;29;20496;-65
2023/10/23 06:38:57;;;;;;;11.20;8.33;;;;;;;3.50;100.00;100671.09;4915993;29;20039;-67
2023/10/23 06:41:22;;;;;;;13.27;8.97;;;;;;;3.65;100.00;100686.53;4917236;29;20630;-64
2023/10/23 06:43:48;;;;;;;16.07;11.17;;;;;;;3.67;100.00;100673.25;4917032;29;20059;-65
2023/10/23 06:46:14;;;;;;;10.03;8.17;;;;;;;3.76;100.00;100682.19;4917113;29;20123;-65
2023/10/23 06:48:46;;;;;;;10.80;7.17;;;;;;;3.79;100.00;100682.81;4916910;29;20531;-63
2023/10/23 06:51:18;;;;;;;10.43;7.47;;;;;;;3.76;100.00;100677.81;4916914;29;20295;-64
2023/10/23 06:53:43;;;;;;;7.87;6.30;;;;;;;3.42;100.00;100619.84;4917318;29;20359;-65
2023/10/23 06:56:09;;;;;;;8.10;5.87;;;;;;;3.66;100.00;100661.03;4899885;29;20272;-65
2023/10/23 06:58:34;;;;;;;8.87;7.20;;;;;;;3.78;100.00;100681.16;4916877;29;20394;-66
2023/10/23 07:01:07;;;;;;;7.57;6.53;;;;;;;3.74;100.00;100674.41;4916748;29;20111;-65
2023/10/23 07:03:36;;;;;;;8.80;6.57;;;;;;;3.85;100.00;100698.13;4917263;29;20043;-65
2023/10/23 07:06:07;;;;;;;7.60;6.65;;;;;;;3.80;100.00;100692.41;4916542;29;20644;-64
2023/10/23 07:08:33;;;;;;;6.77;5.30;;;;;;;3.65;100.00;100677.78;4916265;29;20055;-64
2023/10/23 07:10:59;;;;;;;8.33;6.20;;;;;;;3.68;100.00;100674.91;4916468;29;20280;-66
2023/10/23 07:13:25;;;;;;;8.73;5.30;;;;;;;3.87;100.00;100685.69;4916812;29;20360;-67
2023/10/23 07:15:51;;;;;;;7.60;5.97;;;;;;;3.90;100.00;100688.06;4916376;29;20074;-65
2023/10/23 07:18:17;;;;;;;6.30;4.30;;;;;;;3.91;100.00;100691.53;4916345;29;20040;-65
2023/10/23 07:21:01;;;;;;;6.57;5.73;;;;;;;3.75;100.00;100670.81;4916556;29;20063;-65
2023/10/23 07:23:28;;;;;;;6.60;5.73;;;;;;;3.84;100.00;100691.19;4916595;29;20327;-66
2023/10/23 07:26:10;;;;;;;11.77;6.47;;;;;;;3.86;100.00;100676.09;4915222;29;20303;-64
2023/10/23 07:28:38;;;;;;;6.07;4.73;;;;;;;3.89;100.00;100680.28;4916251;29;20306;-65
2023/10/23 07:31:05;;;;;;;7.03;5.70;;;;;;;3.94;100.00;100696.56;4917073;29;20314;-69
2023/10/23 07:33:31;;;;;;;6.57;5.23;;;;;;;3.83;100.00;100660.53;4916528;29;20036;-66
2023/10/23 07:36:06;;;;;;;7.37;5.47;;;;;;;4.01;100.00;100685.41;4917384;29;20275;-64
2023/10/23 07:38:33;;;;;;;8.53;5.90;;;;;;;4.02;100.00;100689.72;4917036;29;20261;-67
2023/10/23 07:40:58;;;;;;;7.37;4.60;;;;;;;3.98;100.00;100677.75;4917690;29;20795;-67
2023/10/23 07:43:28;;;;;;;4.57;4.17;;;;;;;4.09;100.00;100683.97;4903550;29;20284;-67
2023/10/23 07:45:54;;;;;;;5.00;4.10;;;;;;;4.16;100.00;100693.06;4915992;29;20032;-68
2023/10/23 07:48:22;;;;;;;5.50;4.83;;;;;;;4.11;100.00;100676.78;4916184;29;20680;-68
2023/10/23 07:50:50;;;;;;;4.10;3.70;;;;;;;4.12;100.00;100681.09;4915884;29;20639;-67
2023/10/23 07:53:15;;;;;;;4.80;4.30;;;;;;;4.13;100.00;100664.31;4914536;29;20051;-67
2023/10/23 07:55:41;;;;;;;5.43;3.53;;;;;;;4.17;100.00;100678.94;4915700;29;20268;-67
2023/10/23 07:58:06;;;;;;;6.10;3.57;;;;;;;4.21;100.00;100683.00;4915858;29;20040;-67
2023/10/23 08:00:32;;;;;;;5.10;3.70;;;;;;;3.90;100.00;100630.09;4914779;29;20176;-67
2023/10/23 08:02:59;;;;;;;3.23;2.90;;;;;;;3.99;100.00;100660.16;4915744;29;20071;-71
2023/10/23 08:05:25;;;;;;;4.20;3.80;;;;;;;3.97;100.00;100667.34;4915841;29;20032;-68
2023/10/23 08:07:51;;;;;;;5.87;4.00;;;;;;;3.93;100.00;100672.00;4915764;29;20283;-69
2023/10/23 08:10:17;;;;;;;5.13;4.47;;;;;;;4.28;100.00;100715.78;4915613;29;20044;-68
2023/10/23 08:12:43;;;;;;;4.67;4.03;;;;;;;4.07;100.00;100665.66;4915320;29;20477;-69
2023/10/23 08:15:09;;;;;;;5.37;4.20;;;;;;;4.34;100.00;100715.31;4915806;29;20302;-68
2023/10/23 08:17:35;;;;;;;4.37;3.97;;;;;;;4.22;100.00;100697.84;4915314;29;20047;-71
2023/10/23 08:20:00;;;;;;;5.53;4.60;;;;;;;4.17;100.00;100676.28;4930292;29;20268;-69
2023/10/23 08:22:26;;;;;;;6.33;4.70;;;;;;;4.60;100.00;100710.53;4926087;29;20032;-71
2023/10/23 08:24:54;;;;;;;4.72;3.92;;;;;;;4.71;100.00;100707.88;4931343;29;20044;-70
2023/10/23 08:27:20;;;;;;;4.93;4.43;;;;;;;4.85;100.00;100698.81;4918719;29;20040;-70
2023/10/23 08:29:46;;;;;;;5.47;4.63;;;;;;;4.92;100.00;100700.00;4916848;29;20036;-68
2023/10/23 08:32:12;;;;;;;4.97;4.50;;;;;;;4.92;100.00;100718.47;4917007;29;20500;-70
2023/10/23 08:34:38;;;;;;;5.13;4.63;;;;;;;4.85;100.00;100719.94;4915475;29;20040;-67
2023/10/23 08:37:03;;;;;;;6.37;4.73;;;;;;;4.76;100.00;100699.59;4915109;29;20771;-67
2023/10/23 08:39:29;;;;;;;5.43;4.50;;;;;;;4.85;100.00;100699.66;4914024;29;20044;-68
2023/10/23 08:41:55;;;;;;;5.17;4.60;;;;;;;5.08;100.00;100718.84;4915679;29;20036;-68
2023/10/23 08:44:21;;;;;;;10.70;4.90;;;;;;;5.17;100.00;100701.41;4914908;29;20393;-67
2023/10/23 08:46:49;;;;;;;5.20;4.70;;;;;;;5.28;100.00;100696.91;4915199;29;20107;-67
2023/10/23 08:49:15;;;;;;;4.70;4.28;;;;;;;5.49;100.00;100712.72;4915779;29;20336;-67
2023/10/23 08:51:44;;;;;;;4.97;4.47;;;;;;;5.38;100.00;100696.09;4919470;29;20505;-67
2023/10/23 08:54:17;;;;;;;4.80;4.23;;;;;;;5.52;100.00;100724.84;4919981;29;20524;-68
2023/10/23 08:56:44;;;;;;;9.60;6.93;;;;;;;5.43;100.00;100704.47;4919630;29;20032;-67
2023/10/23 08:59:11;;;;;;;7.10;5.63;;;;;;;5.20;100.00;100688.81;4919721;29;20040;-66
2023/10/23 09:01:37;;;;;;;6.27;4.77;;;;;;;4.82;100.00;100652.41;4919914;29;20036;-66
2023/10/23 09:04:03;;;;;;;5.67;4.87;;;;;;;5.14;100.00;100694.56;4919022;29;20361;-70
2023/10/23 09:06:29;;;;;;;4.70;4.20;;;;;;;5.24;100.00;100707.84;4919001;29;20036;-67
2023/10/23 09:08:55;;;;;;;4.40;3.90;;;;;;;5.02;100.00;100700.91;4918882;29;20044;-75
2023/10/23 09:11:37;;;;;;;5.10;4.60;;;;;;;4.88;100.00;100658.97;4902567;29;20047;-66
2023/10/23 09:14:02;;;;;;;5.53;4.90;;;;;;;5.27;100.00;100716.34;4919057;29;20290;-68
2023/10/23 09:16:28;;;;;;;5.80;5.17;;;;;;;5.07;100.00;100682.88;4918207;29;20744;-69
2023/10/23 09:18:55;;;;;;;5.30;4.43;;;;;;;5.16;100.00;100715.56;4918581;29;20044;-67
2023/10/23 09:21:21;;;;;;;5.63;4.67;;;;;;;5.07;100.00;100708.44;4919117;29;20032;-64
2023/10/23 09:24:03;;;;;;;5.20;4.20;;;;;;;5.03;100.00;100684.09;4917958;29;20038;-67
2023/10/23 09:26:29;;;;;;;5.80;5.20;;;;;;;5.05;100.00;100695.34;4918745;29;20416;-65
2023/10/23 09:28:54;;;;;;;7.73;5.30;;;;;;;4.96;100.00;100686.41;4918127;29;20040;-64
2023/10/23 09:31:21;;;;;;;5.40;4.90;;;;;;;5.03;100.00;100697.28;4918036;29;20036;-65
2023/10/23 09:33:49;;;;;;;5.73;5.23;;;;;;;5.15;100.00;100716.53;4918819;29;20488;-66
2023/10/23 09:36:15;;;;;;;5.97;5.17;;;;;;;4.93;100.00;100684.03;4918809;29;20790;-65
2023/10/23 09:38:57;;;;;;;6.13;5.60;;;;;;;5.14;100.00;100715.69;4916844;29;20036;-66
2023/10/23 09:41:25;;;;;;;6.03;5.20;;;;;;;4.92;100.00;100679.72;4919242;29;20064;-65
2023/10/23 09:43:54;;;;;;;8.00;6.07;;;;;;;5.03;100.00;100707.84;4919129;29;20284;-67
2023/10/23 09:46:20;;;;;;;9.80;6.57;;;;;;;5.03;100.00;100701.72;4919760;29;20312;-66
2023/10/23 09:48:46;;;;;;;8.37;6.27;;;;;;;4.91;100.00;100706.22;4918792;29;20099;-68
2023/10/23 09:51:16;;;;;;;7.07;6.37;;;;;;;4.85;100.00;100709.38;4919431;29;20091;-65
2023/10/23 09:53:49;;;;;;;8.20;7.00;;;;;;;4.83;100.00;100706.84;4918831;29;20316;-68
2023/10/23 09:56:21;;;;;;;7.43;6.10;;;;;;;4.78;100.00;100708.22;4935443;29;20280;-67
2023/10/23 09:58:57;;;;;;;10.13;7.17;;;;;;;4.79;100.00;100715.16;4920297;29;20276;-67
2023/10/23 10:01:31;;;;;;;8.63;6.23;;;;;;;4.77;100.00;100714.44;4918846;29;20325;-69
2023/10/23 10:04:00;;;;;;;9.10;6.13;;;;;;;4.55;100.00;100684.56;4918730;29;20319;-68
2023/10/23 10:06:26;;;;;;;7.57;5.90;;;;;;;4.64;100.00;100697.00;4918145;29;20315;-68
2023/10/23 10:08:54;;;;;;;5.73;4.90;;;;;;;4.52;100.00;100670.78;4917785;29;20138;-69
2023/10/23 10:11:21;;;;;;;5.50;4.50;;;;;;;4.55;100.00;100675.81;4919575;29;20292;-71
2023/10/23 10:13:48;;;;;;;5.00;4.50;;;;;;;4.84;100.00;100713.81;4917814;29;20040;-71
2023/10/23 10:16:14;;;;;;;9.30;5.20;;;;;;;4.87;100.00;100710.06;4919277;29;20036;-71
2023/10/23 10:18:42;;;;;;;4.93;4.43;;;;;;;4.89;100.00;100716.91;4916960;29;20269;-70
2023/10/23 10:21:11;;;;;;;4.85;4.35;;;;;;;4.65;100.00;100676.75;4919381;29;20761;-72
2023/10/23 10:23:37;;;;;;;4.80;4.07;;;;;;;4.75;100.00;100692.63;4918410;29;20048;-66
2023/10/23 10:26:03;;;;;;;5.50;4.60;;;;;;;4.58;100.00;100671.09;4917964;29;20123;-70
2023/10/23 10:28:29;;;;;;;5.67;4.70;;;;;;;4.82;100.00;100693.78;4918814;29;20542;-70
2023/10/23 10:30:55;;;;;;;5.10;4.43;;;;;;;4.68;100.00;100662.47;4919097;29;20286;-68
2023/10/23 10:33:25;;;;;;;5.67;4.87;;;;;;;4.92;100.00;100692.09;4918387;29;20047;-70
2023/10/23 10:36:01;;;;;;;5.67;3.97;;;;;;;5.04;100.00;100709.53;4941479;29;20016;-70
2023/10/23 10:38:29;;;;;;;4.60;3.97;;;;;;;4.85;100.00;100699.66;4940721;29;20284;-65
2023/10/23 10:40:57;;;;;;;4.30;3.67;;;;;;;4.70;100.00;100679.00;4936538;29;20276;-66
2023/10/23 10:43:24;;;;;;;4.43;4.00;;;;;;;4.83;100.00;100717.41;4920476;29;20449;-71
2023/10/23 10:45:50;;;;;;;4.37;3.93;;;;;;;4.69;100.00;100703.69;4917449;29;20040;-70
2023/10/23 10:48:16;;;;;;;4.20;3.80;;;;;;;4.66;100.00;100716.19;4932475;29;20299;-71
2023/10/23 10:50:42;;;;;;;5.73;3.40;;;;;;;4.23;100.00;100654.69;4917773;29;20483;-70
2023/10/23 10:53:13;;;;;;;3.97;3.40;;;;;;;4.60;100.00;100714.03;4917861;29;20408;-69
2023/10/23 10:55:39;;;;;;;3.93;3.10;;;;;;;4.28;100.00;100673.63;4918794;29;20281;-69
2023/10/23 10:58:06;;;;;;;3.80;3.40;;;;;;;4.55;100.00;100718.84;4918413;29;20300;-67
2023/10/23 11:00:35;;;;;;;4.77;3.30;;;;;;;4.59;100.00;100717.63;4918673;29;20296;-68
2023/10/23 11:03:02;;;;;;;4.20;3.00;;;;;;;4.71;100.00;100710.53;4923451;29;20413;-69
2023/10/23 11:05:28;;;;;;;5.37;2.93;;;;;;;4.90;100.00;100702.75;4923718;29;20280;-67
2023/10/23 11:07:54;;;;;;;5.50;2.90;;;;;;;4.71;100.00;100644.56;4926375;29;20282;-67
2023/10/23 11:10:21;;;;;;;3.13;2.80;;;;;;;5.28;100.00;100702.19;4906078;29;20480;-68
2023/10/23 11:12:47;;;;;;;4.00;3.47;;;;;;;5.45;100.00;100708.66;4922732;29;20287;-65
2023/10/23 11:15:14;;;;;;;2.90;2.60;;;;;;;5.42;100.00;100676.38;4922102;29;20036;-66
2023/10/23 11:17:43;;;;;;;3.70;2.77;;;;;;;5.55;100.00;100683.16;4921743;29;20268;-67